Aeroporto :
LOGIN :

Iscrizione | Disclaimer

   EN    FR    IT 

 










Sommario :    VFR   VFR Marginale   IFR   IFR Intensivo   IFR Molto Intensivo
Visibilità : 
Base nubi : 
>= 8 km
>= 3000ft
5 / 8 km
1000 / 3000 ft
1500m / 5 km
500 / 1000 ft
800 / 1500m
200 / 500 ft
< 800m
< 200 ft
Simboli :   Temporali  Nebbia  Neve Forte  Precipitazioni Forti  Vento > 20 kt
SIGMETs :   Varie  Temporali  Ghiacco  Turbolenza  Onda orograficha  Ceneri Vulcaniche






- Altitudine del aeroporto : 102 ft
- Codice IATA : KEL


EDHK - Holtenau

ULTIMO METAR :
  • 251020Z 28013KT 9999 -SHRA BKN025 BKN030 BKN043 13/09 Q1002

METARs OBSOLETI :
  • 250950Z 20010KT 160V220 9999 VCSH BKN031 15/10 Q1001
  • 250920Z 18011KT 160V220 9999 FEW027 SCT045 14/10 Q1000
  • 250850Z 19012KT 160V220 9999 FEW031 SCT047 14/10 Q1001
  • 250820Z 19010KT 9999 SCT043 14/10 Q1001
  • 250750Z 18009KT 150V220 9999 FEW029 BKN039 14/10 Q1001
  • 250720Z AUTO 19008KT 9999 // OVC036/// 14/10 Q1001

TAF TAF EDHK
Valido dal 25 a 09 ore il 25 a 18 ore UTC


250800Z 2509/2518 19010KT 9999 BKN025
TEMPO 2509/2513 20015G25KT
TEMPO 2512/2517 RA
TEMPO 2515/2518 BKN012



MetMap, La meteo Aeronautica in un colpo d'occhio ! - Copyright ORBIFLY Dicembre 2007 - Disclaimer

ORBIFLY MET'MAP TEAM :

Programmazione e sviluppo : Alexandra Zaïnal
Concezione : Baudouin d'Aumeries
Aiuto per la programmazione : Marc-Olivier Méhu
Supporto tecnico e logistico : Manuel Goepfert
Aiuto per la traduzione : Arnaldo La Scala

Contatto : metmap@orbifly.com




FONTI E CREDITI :

   NOAA